Alton, New Hampshire
Current Conditions -  °F | °C
As of 7:55 AM on Thursday 23 Oct 2014 (Local Time) from KLCI Reporting Station
Overcast Overcast  
Wind Chill: 43°   Ceiling: 1500
Heat Index: 48°   Visibility: 10mi
Dew Point: 45°   Wind: 13mph
Humidity: 87%   Direction: 50°NE
Pressure: 29.79"   Gusts: 23mph
Location:  43.45°N, 71.22°W
Report Text: KLCI 231155Z AUTO 05011G20KT 10SM OVC015 09/07 A2979 RMK AO1 P0001 60017 70035 10090 20080 57017
Loading
Personal Weather Stations






























Interactive Weather Map New forecast layout! Learn more

10-Day Weather Forecast

Advertisements
Track Severe Weather on mobile